sensor_id;sensor_type;location;lat;lon;timestamp;P1;durP1;ratioP1;P2;durP2;ratioP2
74080;SDS011;62438;52.228;6.864;2023-02-15T00:01:28;81.22;;;35.38;;
74080;SDS011;62438;52.228;6.864;2023-02-15T00:03:28;74.18;;;34.08;;
74080;SDS011;62438;52.228;6.864;2023-02-15T00:05:30;88.40;;;34.92;;
74080;SDS011;62438;52.228;6.864;2023-02-15T00:07:30;80.07;;;33.28;;
74080;SDS011;62438;52.228;6.864;2023-02-15T00:09:31;80.18;;;33.47;;
74080;SDS011;62438;52.228;6.864;2023-02-15T00:11:31;76.05;;;32.75;;
74080;SDS011;62438;52.228;6.864;2023-02-15T00:13:42;79.55;;;32.15;;
74080;SDS011;62438;52.228;6.864;2023-02-15T00:15:43;72.95;;;32.97;;
74080;SDS011;62438;52.228;6.864;2023-02-15T00:17:43;77.93;;;33.50;;
74080;SDS011;62438;52.228;6.864;2023-02-15T00:19:43;83.80;;;34.67;;
74080;SDS011;62438;52.228;6.864;2023-02-15T00:21:46;71.85;;;32.90;;
74080;SDS011;62438;52.228;6.864;2023-02-15T00:23:48;83.85;;;34.63;;
74080;SDS011;62438;52.228;6.864;2023-02-15T00:25:49;75.45;;;32.70;;
74080;SDS011;62438;52.228;6.864;2023-02-15T00:27:50;67.85;;;32.15;;
74080;SDS011;62438;52.228;6.864;2023-02-15T00:29:50;85.50;;;34.08;;
74080;SDS011;62438;52.228;6.864;2023-02-15T00:31:50;79.10;;;31.27;;
74080;SDS011;62438;52.228;6.864;2023-02-15T00:33:51;82.32;;;32.50;;
74080;SDS011;62438;52.228;6.864;2023-02-15T00:35:55;72.38;;;33.28;;
74080;SDS011;62438;52.228;6.864;2023-02-15T00:37:57;75.32;;;33.80;;
74080;SDS011;62438;52.228;6.864;2023-02-15T00:39:57;83.00;;;32.65;;
74080;SDS011;62438;52.228;6.864;2023-02-15T00:41:58;76.63;;;31.35;;
74080;SDS011;62438;52.228;6.864;2023-02-15T00:43:58;76.95;;;32.92;;
74080;SDS011;62438;52.228;6.864;2023-02-15T00:45:59;78.57;;;32.70;;
74080;SDS011;62438;52.228;6.864;2023-02-15T00:48:00;75.45;;;32.42;;
74080;SDS011;62438;52.228;6.864;2023-02-15T00:50:00;70.15;;;31.42;;
74080;SDS011;62438;52.228;6.864;2023-02-15T00:52:03;67.82;;;30.20;;
74080;SDS011;62438;52.228;6.864;2023-02-15T00:54:03;70.45;;;30.05;;
74080;SDS011;62438;52.228;6.864;2023-02-15T00:56:04;66.95;;;29.13;;
74080;SDS011;62438;52.228;6.864;2023-02-15T00:58:04;73.50;;;29.95;;
74080;SDS011;62438;52.228;6.864;2023-02-15T01:00:05;72.75;;;29.95;;
74080;SDS011;62438;52.228;6.864;2023-02-15T01:02:05;73.05;;;30.23;;
74080;SDS011;62438;52.228;6.864;2023-02-15T01:04:06;68.40;;;28.75;;
74080;SDS011;62438;52.228;6.864;2023-02-15T01:06:06;67.38;;;28.92;;
74080;SDS011;62438;52.228;6.864;2023-02-15T01:08:07;71.75;;;27.02;;
74080;SDS011;62438;52.228;6.864;2023-02-15T01:10:08;73.78;;;27.38;;
74080;SDS011;62438;52.228;6.864;2023-02-15T01:12:08;62.80;;;26.67;;
74080;SDS011;62438;52.228;6.864;2023-02-15T01:14:09;68.43;;;28.85;;
74080;SDS011;62438;52.228;6.864;2023-02-15T01:16:09;56.35;;;26.65;;
74080;SDS011;62438;52.228;6.864;2023-02-15T01:18:10;67.28;;;28.95;;
74080;SDS011;62438;52.228;6.864;2023-02-15T01:20:11;69.90;;;28.77;;
74080;SDS011;62438;52.228;6.864;2023-02-15T01:22:12;66.32;;;28.77;;
74080;SDS011;62438;52.228;6.864;2023-02-15T01:24:13;69.28;;;26.35;;
74080;SDS011;62438;52.228;6.864;2023-02-15T01:26:14;67.95;;;27.90;;
74080;SDS011;62438;52.228;6.864;2023-02-15T01:28:14;63.70;;;26.30;;
74080;SDS011;62438;52.228;6.864;2023-02-15T01:30:15;60.70;;;25.08;;
74080;SDS011;62438;52.228;6.864;2023-02-15T01:32:15;61.17;;;26.13;;
74080;SDS011;62438;52.228;6.864;2023-02-15T01:34:16;63.13;;;27.13;;
74080;SDS011;62438;52.228;6.864;2023-02-15T01:36:16;63.80;;;26.00;;
74080;SDS011;62438;52.228;6.864;2023-02-15T01:38:17;69.35;;;25.27;;
74080;SDS011;62438;52.228;6.864;2023-02-15T01:40:18;70.30;;;28.55;;
74080;SDS011;62438;52.228;6.864;2023-02-15T01:42:22;65.65;;;26.92;;
74080;SDS011;62438;52.228;6.864;2023-02-15T01:46:47;59.22;;;25.98;;
74080;SDS011;62438;52.228;6.864;2023-02-15T01:48:56;55.33;;;24.13;;
74080;SDS011;62438;52.228;6.864;2023-02-15T01:51:03;59.75;;;24.88;;
74080;SDS011;62438;52.228;6.864;2023-02-15T01:53:05;58.40;;;26.30;;
74080;SDS011;62438;52.228;6.864;2023-02-15T01:55:13;60.47;;;26.50;;
74080;SDS011;62438;52.228;6.864;2023-02-15T01:57:16;59.03;;;24.40;;
74080;SDS011;62438;52.228;6.864;2023-02-15T01:59:20;60.08;;;25.98;;
74080;SDS011;62438;52.228;6.864;2023-02-15T02:01:23;62.47;;;24.52;;
74080;SDS011;62438;52.228;6.864;2023-02-15T02:03:30;52.28;;;24.08;;
74080;SDS011;62438;52.228;6.864;2023-02-15T02:05:50;57.30;;;22.92;;
74080;SDS011;62438;52.228;6.864;2023-02-15T02:07:51;55.13;;;24.05;;
74080;SDS011;62438;52.228;6.864;2023-02-15T02:09:53;58.45;;;23.38;;
74080;SDS011;62438;52.228;6.864;2023-02-15T02:11:54;55.67;;;23.85;;
74080;SDS011;62438;52.228;6.864;2023-02-15T02:13:55;55.40;;;22.52;;
74080;SDS011;62438;52.228;6.864;2023-02-15T02:16:08;52.38;;;23.00;;
74080;SDS011;62438;52.228;6.864;2023-02-15T02:32:51;50.92;;;20.92;;
74080;SDS011;62438;52.228;6.864;2023-02-15T02:35:08;50.75;;;20.10;;
74080;SDS011;62438;52.228;6.864;2023-02-15T02:37:37;51.95;;;19.25;;
74080;SDS011;62438;52.228;6.864;2023-02-15T02:44:31;49.10;;;19.17;;
74080;SDS011;62438;52.228;6.864;2023-02-15T02:46:53;48.63;;;19.85;;
74080;SDS011;62438;52.228;6.864;2023-02-15T02:49:00;44.78;;;19.65;;
74080;SDS011;62438;52.228;6.864;2023-02-15T02:51:01;50.70;;;19.50;;
74080;SDS011;62438;52.228;6.864;2023-02-15T02:53:02;44.65;;;17.88;;
74080;SDS011;62438;52.228;6.864;2023-02-15T02:55:03;50.30;;;19.58;;
74080;SDS011;62438;52.228;6.864;2023-02-15T02:57:06;44.47;;;19.45;;
74080;SDS011;62438;52.228;6.864;2023-02-15T02:59:11;46.53;;;19.75;;
74080;SDS011;62438;52.228;6.864;2023-02-15T03:01:24;50.08;;;19.70;;
74080;SDS011;62438;52.228;6.864;2023-02-15T03:05:45;41.83;;;18.67;;
74080;SDS011;62438;52.228;6.864;2023-02-15T03:07:49;48.15;;;18.35;;
74080;SDS011;62438;52.228;6.864;2023-02-15T03:09:53;46.38;;;17.80;;
74080;SDS011;62438;52.228;6.864;2023-02-15T03:11:54;48.25;;;17.70;;
74080;SDS011;62438;52.228;6.864;2023-02-15T03:13:55;45.60;;;18.92;;
74080;SDS011;62438;52.228;6.864;2023-02-15T03:15:56;42.38;;;18.55;;
74080;SDS011;62438;52.228;6.864;2023-02-15T03:18:17;47.17;;;19.35;;
74080;SDS011;62438;52.228;6.864;2023-02-15T03:20:24;51.17;;;18.40;;
74080;SDS011;62438;52.228;6.864;2023-02-15T03:22:29;46.05;;;18.45;;
74080;SDS011;62438;52.228;6.864;2023-02-15T03:24:36;41.00;;;17.42;;
74080;SDS011;62438;52.228;6.864;2023-02-15T03:26:46;45.80;;;17.00;;
74080;SDS011;62438;52.228;6.864;2023-02-15T03:28:50;42.28;;;17.15;;
74080;SDS011;62438;52.228;6.864;2023-02-15T03:30:55;45.25;;;16.90;;
74080;SDS011;62438;52.228;6.864;2023-02-15T03:33:00;46.35;;;18.15;;
74080;SDS011;62438;52.228;6.864;2023-02-15T03:35:03;39.97;;;17.00;;
74080;SDS011;62438;52.228;6.864;2023-02-15T03:37:11;42.45;;;17.10;;
74080;SDS011;62438;52.228;6.864;2023-02-15T03:39:23;42.47;;;17.05;;
74080;SDS011;62438;52.228;6.864;2023-02-15T03:41:39;43.15;;;16.90;;
74080;SDS011;62438;52.228;6.864;2023-02-15T03:43:52;39.97;;;16.77;;
74080;SDS011;62438;52.228;6.864;2023-02-15T03:45:57;47.30;;;16.83;;
74080;SDS011;62438;52.228;6.864;2023-02-15T03:48:01;45.03;;;16.75;;
74080;SDS011;62438;52.228;6.864;2023-02-15T03:50:25;43.25;;;16.58;;
74080;SDS011;62438;52.228;6.864;2023-02-15T03:52:47;43.15;;;16.05;;
74080;SDS011;62438;52.228;6.864;2023-02-15T03:54:48;42.20;;;17.15;;
74080;SDS011;62438;52.228;6.864;2023-02-15T03:56:50;39.13;;;15.93;;
74080;SDS011;62438;52.228;6.864;2023-02-15T03:59:10;46.38;;;15.63;;
74080;SDS011;62438;52.228;6.864;2023-02-15T04:01:33;40.67;;;15.43;;
74080;SDS011;62438;52.228;6.864;2023-02-15T04:04:01;47.25;;;15.75;;
74080;SDS011;62438;52.228;6.864;2023-02-15T04:06:07;44.70;;;15.25;;
74080;SDS011;62438;52.228;6.864;2023-02-15T04:08:08;41.28;;;16.08;;
74080;SDS011;62438;52.228;6.864;2023-02-15T04:10:08;41.60;;;17.08;;
74080;SDS011;62438;52.228;6.864;2023-02-15T04:12:27;42.20;;;14.82;;
74080;SDS011;62438;52.228;6.864;2023-02-15T04:14:28;38.00;;;16.83;;
74080;SDS011;62438;52.228;6.864;2023-02-15T04:16:47;37.70;;;14.25;;
74080;SDS011;62438;52.228;6.864;2023-02-15T04:18:47;41.92;;;15.90;;
74080;SDS011;62438;52.228;6.864;2023-02-15T04:21:06;36.97;;;15.32;;
74080;SDS011;62438;52.228;6.864;2023-02-15T04:23:25;41.67;;;15.48;;
74080;SDS011;62438;52.228;6.864;2023-02-15T04:25:44;36.72;;;15.40;;
74080;SDS011;62438;52.228;6.864;2023-02-15T04:27:46;40.00;;;15.88;;
74080;SDS011;62438;52.228;6.864;2023-02-15T04:29:48;40.65;;;16.00;;
74080;SDS011;62438;52.228;6.864;2023-02-15T04:31:50;41.78;;;15.15;;
74080;SDS011;62438;52.228;6.864;2023-02-15T04:33:51;36.58;;;15.57;;
74080;SDS011;62438;52.228;6.864;2023-02-15T04:35:51;41.55;;;15.55;;
74080;SDS011;62438;52.228;6.864;2023-02-15T04:37:51;45.85;;;16.90;;
74080;SDS011;62438;52.228;6.864;2023-02-15T04:39:52;43.42;;;16.05;;
74080;SDS011;62438;52.228;6.864;2023-02-15T04:41:53;40.78;;;15.15;;
74080;SDS011;62438;52.228;6.864;2023-02-15T04:43:54;46.10;;;15.23;;
74080;SDS011;62438;52.228;6.864;2023-02-15T04:45:54;40.60;;;15.85;;
74080;SDS011;62438;52.228;6.864;2023-02-15T04:47:55;34.67;;;13.73;;
74080;SDS011;62438;52.228;6.864;2023-02-15T04:49:55;41.83;;;15.38;;
74080;SDS011;62438;52.228;6.864;2023-02-15T04:51:56;36.40;;;15.05;;
74080;SDS011;62438;52.228;6.864;2023-02-15T04:53:56;43.30;;;15.23;;
74080;SDS011;62438;52.228;6.864;2023-02-15T04:55:56;42.08;;;14.90;;
74080;SDS011;62438;52.228;6.864;2023-02-15T04:57:57;41.55;;;13.93;;
74080;SDS011;62438;52.228;6.864;2023-02-15T04:59:57;40.42;;;15.13;;
74080;SDS011;62438;52.228;6.864;2023-02-15T05:01:59;37.75;;;15.07;;
74080;SDS011;62438;52.228;6.864;2023-02-15T05:03:59;40.17;;;15.07;;
74080;SDS011;62438;52.228;6.864;2023-02-15T05:06:00;40.83;;;14.52;;
74080;SDS011;62438;52.228;6.864;2023-02-15T05:08:00;35.88;;;14.70;;
74080;SDS011;62438;52.228;6.864;2023-02-15T05:10:01;38.80;;;15.15;;
74080;SDS011;62438;52.228;6.864;2023-02-15T05:12:01;38.42;;;15.93;;
74080;SDS011;62438;52.228;6.864;2023-02-15T05:14:01;36.13;;;14.32;;
74080;SDS011;62438;52.228;6.864;2023-02-15T05:16:02;43.42;;;15.65;;
74080;SDS011;62438;52.228;6.864;2023-02-15T05:18:03;39.80;;;15.20;;
74080;SDS011;62438;52.228;6.864;2023-02-15T05:20:03;47.47;;;15.68;;
74080;SDS011;62438;52.228;6.864;2023-02-15T05:22:04;39.35;;;15.80;;
74080;SDS011;62438;52.228;6.864;2023-02-15T05:24:05;41.60;;;15.68;;
74080;SDS011;62438;52.228;6.864;2023-02-15T05:26:25;44.95;;;15.88;;
74080;SDS011;62438;52.228;6.864;2023-02-15T05:28:44;46.13;;;16.65;;
74080;SDS011;62438;52.228;6.864;2023-02-15T05:30:45;46.42;;;15.13;;
74080;SDS011;62438;52.228;6.864;2023-02-15T05:32:49;45.47;;;15.82;;
74080;SDS011;62438;52.228;6.864;2023-02-15T05:34:49;51.53;;;16.65;;
74080;SDS011;62438;52.228;6.864;2023-02-15T05:36:50;50.20;;;16.52;;
74080;SDS011;62438;52.228;6.864;2023-02-15T05:38:50;56.63;;;16.75;;
74080;SDS011;62438;52.228;6.864;2023-02-15T05:40:51;47.47;;;17.38;;
74080;SDS011;62438;52.228;6.864;2023-02-15T05:42:52;50.72;;;17.30;;
74080;SDS011;62438;52.228;6.864;2023-02-15T05:44:52;53.72;;;17.40;;
74080;SDS011;62438;52.228;6.864;2023-02-15T05:46:52;49.05;;;17.73;;
74080;SDS011;62438;52.228;6.864;2023-02-15T05:48:53;58.80;;;17.73;;
74080;SDS011;62438;52.228;6.864;2023-02-15T05:51:07;46.38;;;15.73;;
74080;SDS011;62438;52.228;6.864;2023-02-15T05:53:15;49.92;;;16.95;;
74080;SDS011;62438;52.228;6.864;2023-02-15T05:55:16;43.33;;;16.13;;
74080;SDS011;62438;52.228;6.864;2023-02-15T05:57:16;48.97;;;16.58;;
74080;SDS011;62438;52.228;6.864;2023-02-15T05:59:17;39.92;;;15.48;;
74080;SDS011;62438;52.228;6.864;2023-02-15T06:01:18;50.58;;;17.38;;
74080;SDS011;62438;52.228;6.864;2023-02-15T06:03:22;46.28;;;16.02;;
74080;SDS011;62438;52.228;6.864;2023-02-15T06:05:23;44.70;;;16.05;;
74080;SDS011;62438;52.228;6.864;2023-02-15T06:07:23;46.72;;;15.80;;
74080;SDS011;62438;52.228;6.864;2023-02-15T06:09:24;46.92;;;15.98;;
74080;SDS011;62438;52.228;6.864;2023-02-15T06:11:24;49.90;;;16.50;;
74080;SDS011;62438;52.228;6.864;2023-02-15T06:13:25;42.67;;;16.08;;
74080;SDS011;62438;52.228;6.864;2023-02-15T06:15:25;48.60;;;16.40;;
74080;SDS011;62438;52.228;6.864;2023-02-15T06:17:26;41.72;;;15.48;;
74080;SDS011;62438;52.228;6.864;2023-02-15T06:19:26;43.63;;;16.23;;
74080;SDS011;62438;52.228;6.864;2023-02-15T06:21:27;56.28;;;19.00;;
74080;SDS011;62438;52.228;6.864;2023-02-15T06:23:28;52.53;;;17.58;;
74080;SDS011;62438;52.228;6.864;2023-02-15T06:25:28;48.35;;;17.05;;
74080;SDS011;62438;52.228;6.864;2023-02-15T06:27:29;51.33;;;15.85;;
74080;SDS011;62438;52.228;6.864;2023-02-15T06:29:29;52.03;;;16.38;;
74080;SDS011;62438;52.228;6.864;2023-02-15T06:31:29;52.72;;;17.00;;
74080;SDS011;62438;52.228;6.864;2023-02-15T06:33:30;50.92;;;16.80;;
74080;SDS011;62438;52.228;6.864;2023-02-15T06:35:30;54.90;;;16.67;;
74080;SDS011;62438;52.228;6.864;2023-02-15T06:37:31;38.13;;;15.07;;
74080;SDS011;62438;52.228;6.864;2023-02-15T06:39:31;40.97;;;15.27;;
74080;SDS011;62438;52.228;6.864;2023-02-15T06:41:32;46.78;;;16.40;;
74080;SDS011;62438;52.228;6.864;2023-02-15T06:43:32;48.45;;;16.85;;
74080;SDS011;62438;52.228;6.864;2023-02-15T06:45:34;51.60;;;17.25;;
74080;SDS011;62438;52.228;6.864;2023-02-15T06:47:34;52.95;;;16.88;;
74080;SDS011;62438;52.228;6.864;2023-02-15T06:49:34;54.67;;;17.75;;
74080;SDS011;62438;52.228;6.864;2023-02-15T06:51:35;53.85;;;18.85;;
74080;SDS011;62438;52.228;6.864;2023-02-15T06:53:35;53.92;;;18.15;;
74080;SDS011;62438;52.228;6.864;2023-02-15T06:55:36;53.30;;;19.27;;
74080;SDS011;62438;52.228;6.864;2023-02-15T06:57:36;55.67;;;17.55;;
74080;SDS011;62438;52.228;6.864;2023-02-15T06:59:36;56.05;;;18.92;;
74080;SDS011;62438;52.228;6.864;2023-02-15T07:01:37;58.22;;;18.48;;
74080;SDS011;62438;52.228;6.864;2023-02-15T07:03:37;57.65;;;19.55;;
74080;SDS011;62438;52.228;6.864;2023-02-15T07:05:38;54.47;;;19.00;;
74080;SDS011;62438;52.228;6.864;2023-02-15T07:07:38;58.90;;;20.52;;
74080;SDS011;62438;52.228;6.864;2023-02-15T07:09:39;62.00;;;20.45;;
74080;SDS011;62438;52.228;6.864;2023-02-15T07:11:39;55.67;;;19.15;;
74080;SDS011;62438;52.228;6.864;2023-02-15T07:13:58;54.75;;;18.73;;
74080;SDS011;62438;52.228;6.864;2023-02-15T07:15:58;63.05;;;19.67;;
74080;SDS011;62438;52.228;6.864;2023-02-15T07:17:58;57.95;;;21.45;;
74080;SDS011;62438;52.228;6.864;2023-02-15T07:19:59;62.30;;;19.10;;
74080;SDS011;62438;52.228;6.864;2023-02-15T07:21:59;65.38;;;21.67;;
74080;SDS011;62438;52.228;6.864;2023-02-15T07:24:00;56.15;;;20.38;;
74080;SDS011;62438;52.228;6.864;2023-02-15T07:26:01;66.35;;;22.17;;
74080;SDS011;62438;52.228;6.864;2023-02-15T07:28:02;58.20;;;20.70;;
74080;SDS011;62438;52.228;6.864;2023-02-15T07:30:04;67.05;;;20.95;;
74080;SDS011;62438;52.228;6.864;2023-02-15T07:32:07;61.45;;;21.75;;
74080;SDS011;62438;52.228;6.864;2023-02-15T07:34:07;58.95;;;21.70;;
74080;SDS011;62438;52.228;6.864;2023-02-15T07:36:08;57.85;;;22.55;;
74080;SDS011;62438;52.228;6.864;2023-02-15T07:38:12;62.40;;;23.58;;
74080;SDS011;62438;52.228;6.864;2023-02-15T07:40:12;68.15;;;23.98;;
74080;SDS011;62438;52.228;6.864;2023-02-15T07:42:12;67.78;;;22.60;;
74080;SDS011;62438;52.228;6.864;2023-02-15T07:44:14;70.53;;;22.27;;
74080;SDS011;62438;52.228;6.864;2023-02-15T07:46:15;68.70;;;23.73;;
74080;SDS011;62438;52.228;6.864;2023-02-15T07:48:16;66.50;;;23.55;;
74080;SDS011;62438;52.228;6.864;2023-02-15T07:50:17;72.30;;;23.38;;
74080;SDS011;62438;52.228;6.864;2023-02-15T07:52:18;62.85;;;23.60;;
74080;SDS011;62438;52.228;6.864;2023-02-15T07:54:19;67.90;;;23.80;;
74080;SDS011;62438;52.228;6.864;2023-02-15T07:56:20;68.85;;;24.35;;
74080;SDS011;62438;52.228;6.864;2023-02-15T07:58:21;70.90;;;24.77;;
74080;SDS011;62438;52.228;6.864;2023-02-15T08:00:42;77.40;;;24.30;;
74080;SDS011;62438;52.228;6.864;2023-02-15T08:02:58;79.40;;;23.35;;
74080;SDS011;62438;52.228;6.864;2023-02-15T08:05:13;70.32;;;24.83;;
74080;SDS011;62438;52.228;6.864;2023-02-15T08:07:14;73.90;;;22.63;;
74080;SDS011;62438;52.228;6.864;2023-02-15T08:09:15;68.22;;;23.92;;
74080;SDS011;62438;52.228;6.864;2023-02-15T08:13:25;69.72;;;25.70;;
74080;SDS011;62438;52.228;6.864;2023-02-15T08:15:27;76.82;;;24.15;;
74080;SDS011;62438;52.228;6.864;2023-02-15T08:17:27;69.63;;;24.52;;
74080;SDS011;62438;52.228;6.864;2023-02-15T08:19:29;70.70;;;23.13;;
74080;SDS011;62438;52.228;6.864;2023-02-15T08:21:32;58.33;;;21.85;;
74080;SDS011;62438;52.228;6.864;2023-02-15T08:23:33;69.60;;;23.75;;
74080;SDS011;62438;52.228;6.864;2023-02-15T08:25:33;65.13;;;24.08;;
74080;SDS011;62438;52.228;6.864;2023-02-15T08:27:34;65.40;;;24.08;;
74080;SDS011;62438;52.228;6.864;2023-02-15T08:29:35;61.47;;;24.05;;
74080;SDS011;62438;52.228;6.864;2023-02-15T08:31:37;58.08;;;22.38;;
74080;SDS011;62438;52.228;6.864;2023-02-15T08:33:41;65.10;;;23.17;;
74080;SDS011;62438;52.228;6.864;2023-02-15T08:35:43;61.90;;;23.70;;
74080;SDS011;62438;52.228;6.864;2023-02-15T08:37:43;68.13;;;24.25;;
74080;SDS011;62438;52.228;6.864;2023-02-15T08:39:45;63.85;;;24.10;;
74080;SDS011;62438;52.228;6.864;2023-02-15T08:41:46;74.93;;;26.63;;
74080;SDS011;62438;52.228;6.864;2023-02-15T08:43:48;63.13;;;22.83;;
74080;SDS011;62438;52.228;6.864;2023-02-15T08:45:51;62.83;;;23.80;;
74080;SDS011;62438;52.228;6.864;2023-02-15T08:47:51;60.03;;;24.27;;
74080;SDS011;62438;52.228;6.864;2023-02-15T08:49:52;64.70;;;24.67;;
74080;SDS011;62438;52.228;6.864;2023-02-15T08:51:53;67.57;;;25.17;;
74080;SDS011;62438;52.228;6.864;2023-02-15T08:53:54;76.20;;;26.52;;
74080;SDS011;62438;52.228;6.864;2023-02-15T08:55:56;71.47;;;26.08;;
74080;SDS011;62438;52.228;6.864;2023-02-15T08:57:57;72.00;;;26.45;;
74080;SDS011;62438;52.228;6.864;2023-02-15T08:59:57;66.55;;;26.10;;
74080;SDS011;62438;52.228;6.864;2023-02-15T09:01:58;65.40;;;25.48;;
74080;SDS011;62438;52.228;6.864;2023-02-15T09:03:59;82.38;;;28.27;;
74080;SDS011;62438;52.228;6.864;2023-02-15T09:06:04;69.63;;;25.20;;
74080;SDS011;62438;52.228;6.864;2023-02-15T09:08:04;68.72;;;26.75;;
74080;SDS011;62438;52.228;6.864;2023-02-15T09:10:05;72.95;;;27.40;;
74080;SDS011;62438;52.228;6.864;2023-02-15T09:12:06;72.72;;;25.65;;
74080;SDS011;62438;52.228;6.864;2023-02-15T09:14:08;66.40;;;25.38;;
74080;SDS011;62438;52.228;6.864;2023-02-15T09:16:10;60.22;;;23.90;;
74080;SDS011;62438;52.228;6.864;2023-02-15T09:18:10;57.40;;;22.80;;
74080;SDS011;62438;52.228;6.864;2023-02-15T09:20:12;48.85;;;19.70;;
74080;SDS011;62438;52.228;6.864;2023-02-15T09:22:12;46.33;;;20.45;;
74080;SDS011;62438;52.228;6.864;2023-02-15T09:24:13;47.78;;;19.25;;
74080;SDS011;62438;52.228;6.864;2023-02-15T09:26:16;43.70;;;18.10;;
74080;SDS011;62438;52.228;6.864;2023-02-15T09:28:18;42.60;;;17.75;;
74080;SDS011;62438;52.228;6.864;2023-02-15T09:30:19;41.08;;;17.52;;
74080;SDS011;62438;52.228;6.864;2023-02-15T09:32:20;41.95;;;18.23;;
74080;SDS011;62438;52.228;6.864;2023-02-15T09:34:22;40.08;;;16.73;;
74080;SDS011;62438;52.228;6.864;2023-02-15T09:38:25;37.35;;;16.70;;
74080;SDS011;62438;52.228;6.864;2023-02-15T09:40:25;39.42;;;16.20;;
74080;SDS011;62438;52.228;6.864;2023-02-15T09:49:52;36.10;;;16.00;;
74080;SDS011;62438;52.228;6.864;2023-02-15T09:54:24;38.50;;;16.58;;
74080;SDS011;62438;52.228;6.864;2023-02-15T09:56:39;36.92;;;16.67;;
74080;SDS011;62438;52.228;6.864;2023-02-15T10:01:15;38.83;;;16.40;;
74080;SDS011;62438;52.228;6.864;2023-02-15T10:15:23;31.15;;;12.70;;
74080;SDS011;62438;52.228;6.864;2023-02-15T10:22:02;36.33;;;16.17;;
74080;SDS011;62438;52.228;6.864;2023-02-15T10:26:42;40.30;;;16.02;;
74080;SDS011;62438;52.228;6.864;2023-02-15T10:28:51;34.72;;;14.60;;
74080;SDS011;62438;52.228;6.864;2023-02-15T10:30:59;38.78;;;14.80;;
74080;SDS011;62438;52.228;6.864;2023-02-15T10:33:25;34.83;;;14.85;;
74080;SDS011;62438;52.228;6.864;2023-02-15T10:40:17;34.58;;;14.57;;
74080;SDS011;62438;52.228;6.864;2023-02-15T10:42:44;33.92;;;14.75;;
74080;SDS011;62438;52.228;6.864;2023-02-15T10:46:57;32.38;;;14.98;;
74080;SDS011;62438;52.228;6.864;2023-02-15T10:59:08;33.17;;;15.63;;
74080;SDS011;62438;52.228;6.864;2023-02-15T11:01:34;36.92;;;15.13;;
74080;SDS011;62438;52.228;6.864;2023-02-15T11:03:46;35.95;;;14.93;;
74080;SDS011;62438;52.228;6.864;2023-02-15T11:06:09;32.67;;;14.05;;
74080;SDS011;62438;52.228;6.864;2023-02-15T11:08:14;36.10;;;14.70;;
74080;SDS011;62438;52.228;6.864;2023-02-15T11:10:35;38.38;;;14.85;;
74080;SDS011;62438;52.228;6.864;2023-02-15T11:12:36;36.05;;;15.23;;
74080;SDS011;62438;52.228;6.864;2023-02-15T11:14:38;33.97;;;15.45;;
74080;SDS011;62438;52.228;6.864;2023-02-15T11:16:45;34.88;;;14.57;;
74080;SDS011;62438;52.228;6.864;2023-02-15T11:18:53;34.72;;;14.55;;
74080;SDS011;62438;52.228;6.864;2023-02-15T11:21:04;33.42;;;14.05;;
74080;SDS011;62438;52.228;6.864;2023-02-15T11:23:13;34.45;;;14.68;;
74080;SDS011;62438;52.228;6.864;2023-02-15T11:25:21;37.08;;;14.65;;
74080;SDS011;62438;52.228;6.864;2023-02-15T11:27:26;35.47;;;14.82;;
74080;SDS011;62438;52.228;6.864;2023-02-15T11:29:35;35.78;;;14.63;;
74080;SDS011;62438;52.228;6.864;2023-02-15T11:31:43;38.88;;;15.68;;
74080;SDS011;62438;52.228;6.864;2023-02-15T11:33:47;35.78;;;15.20;;
74080;SDS011;62438;52.228;6.864;2023-02-15T11:36:25;35.75;;;13.90;;
74080;SDS011;62438;52.228;6.864;2023-02-15T11:38:22;33.10;;;15.02;;
74080;SDS011;62438;52.228;6.864;2023-02-15T11:40:35;36.90;;;14.55;;
74080;SDS011;62438;52.228;6.864;2023-02-15T11:42:49;32.35;;;13.82;;
74080;SDS011;62438;52.228;6.864;2023-02-15T11:46:59;29.60;;;13.15;;
74080;SDS011;62438;52.228;6.864;2023-02-15T11:49:01;37.63;;;15.68;;
74080;SDS011;62438;52.228;6.864;2023-02-15T11:51:03;34.40;;;14.65;;
74080;SDS011;62438;52.228;6.864;2023-02-15T11:53:04;31.48;;;14.10;;
74080;SDS011;62438;52.228;6.864;2023-02-15T11:55:19;35.55;;;15.05;;
74080;SDS011;62438;52.228;6.864;2023-02-15T11:57:26;33.95;;;14.05;;
74080;SDS011;62438;52.228;6.864;2023-02-15T11:59:34;35.83;;;14.75;;
74080;SDS011;62438;52.228;6.864;2023-02-15T12:01:45;33.80;;;13.82;;
74080;SDS011;62438;52.228;6.864;2023-02-15T12:03:47;34.33;;;14.18;;
74080;SDS011;62438;52.228;6.864;2023-02-15T12:05:49;31.05;;;13.68;;
74080;SDS011;62438;52.228;6.864;2023-02-15T12:07:58;36.88;;;14.20;;
74080;SDS011;62438;52.228;6.864;2023-02-15T12:10:10;36.63;;;14.07;;
74080;SDS011;62438;52.228;6.864;2023-02-15T12:12:23;34.30;;;14.65;;
74080;SDS011;62438;52.228;6.864;2023-02-15T12:14:23;35.97;;;14.70;;
74080;SDS011;62438;52.228;6.864;2023-02-15T12:16:24;34.35;;;14.13;;
74080;SDS011;62438;52.228;6.864;2023-02-15T12:18:33;31.60;;;12.82;;
74080;SDS011;62438;52.228;6.864;2023-02-15T12:20:36;34.47;;;13.82;;
74080;SDS011;62438;52.228;6.864;2023-02-15T12:22:37;28.35;;;13.38;;
74080;SDS011;62438;52.228;6.864;2023-02-15T12:24:43;35.13;;;14.48;;
74080;SDS011;62438;52.228;6.864;2023-02-15T12:26:55;32.85;;;13.38;;
74080;SDS011;62438;52.228;6.864;2023-02-15T12:28:59;34.60;;;13.73;;
74080;SDS011;62438;52.228;6.864;2023-02-15T12:31:02;32.60;;;12.65;;
74080;SDS011;62438;52.228;6.864;2023-02-15T12:33:16;31.20;;;12.63;;
74080;SDS011;62438;52.228;6.864;2023-02-15T12:35:31;33.15;;;13.18;;
74080;SDS011;62438;52.228;6.864;2023-02-15T12:37:34;33.25;;;13.00;;
74080;SDS011;62438;52.228;6.864;2023-02-15T12:39:35;33.13;;;13.25;;
74080;SDS011;62438;52.228;6.864;2023-02-15T12:41:36;37.80;;;14.48;;
74080;SDS011;62438;52.228;6.864;2023-02-15T12:43:37;33.08;;;12.68;;
74080;SDS011;62438;52.228;6.864;2023-02-15T12:45:38;33.42;;;14.02;;
74080;SDS011;62438;52.228;6.864;2023-02-15T12:47:38;31.63;;;11.70;;
74080;SDS011;62438;52.228;6.864;2023-02-15T12:49:39;31.50;;;13.15;;
74080;SDS011;62438;52.228;6.864;2023-02-15T12:51:47;30.75;;;12.10;;
74080;SDS011;62438;52.228;6.864;2023-02-15T12:53:54;32.72;;;12.45;;
74080;SDS011;62438;52.228;6.864;2023-02-15T12:55:56;31.35;;;12.68;;
74080;SDS011;62438;52.228;6.864;2023-02-15T12:58:17;37.42;;;11.95;;
74080;SDS011;62438;52.228;6.864;2023-02-15T13:02:21;30.58;;;12.07;;
74080;SDS011;62438;52.228;6.864;2023-02-15T13:04:27;31.98;;;13.20;;
74080;SDS011;62438;52.228;6.864;2023-02-15T13:06:30;30.65;;;12.85;;
74080;SDS011;62438;52.228;6.864;2023-02-15T13:08:33;39.90;;;12.02;;
74080;SDS011;62438;52.228;6.864;2023-02-15T13:10:39;29.38;;;11.48;;
74080;SDS011;62438;52.228;6.864;2023-02-15T13:12:42;30.40;;;12.15;;
74080;SDS011;62438;52.228;6.864;2023-02-15T13:14:48;30.50;;;12.27;;
74080;SDS011;62438;52.228;6.864;2023-02-15T13:16:55;30.40;;;11.88;;
74080;SDS011;62438;52.228;6.864;2023-02-15T13:18:58;27.73;;;11.57;;
74080;SDS011;62438;52.228;6.864;2023-02-15T13:21:13;29.50;;;11.85;;
74080;SDS011;62438;52.228;6.864;2023-02-15T13:23:34;32.22;;;11.32;;
74080;SDS011;62438;52.228;6.864;2023-02-15T13:25:39;30.92;;;11.73;;
74080;SDS011;62438;52.228;6.864;2023-02-15T13:27:52;31.00;;;11.82;;